Station: Mount Crawford

  Atmospheric Gas Attenuation - ITU Rec 676-11   --------------- db/100km ---------------
Date Time Temp RH % AH g/m3 Dew Point Wind Direction Speed kph Gust kph Barometer mB Rainfall Since 9am 24GHz 47GHz 76GHz 122GHz 134GHz 241GHz
16 19:20 14.8 64 8.11 8.1 20 24 1016.9 0 18.5 25.0 37.5 98.4 91.1 313.0
16 19:10 15.1 61 7.87 7.6 24 30 1016.8 0 18.0 24.5 36.5 95.5 87.7 301.1
16 19:00 15.7 59 7.89 7.7 19 30 1016.7 0 18.0 24.4 36.3 95.0 87.3 299.7
16 18:50 15.8 58 7.81 7.6 22 26 1016.7 0 17.8 24.2 35.9 94.1 86.2 295.8
16 18:40 16.4 57 7.96 7.9 17 20 1016.6 0 18.1 24.3 36.2 94.9 87.4 300.1
16 18:30 16.5 57 8 8 19 22 1016.5 0 18.2 24.3 36.3 95.1 87.7 301.5
16 18:19 16.9 55 7.91 7.8 26 33 1016.4 0 18.0 24.1 35.8 93.7 86.2 296.0
16 18:10 17.7 52 7.85 7.7 22 24 1016.3 0 17.8 23.8 35.2 92.2 84.6 290.5
16 18:00 17.6 50 7.5 7.1 20 30 1016.3 0 17.1 23.3 34.0 88.9 80.4 275.9
16 17:50 18.2 50 7.77 7.6 15 20 1016.4 0 17.6 23.5 34.7 90.9 83.1 285.3
16 17:40 18.3 49 7.66 7.4 20 24 1016.3 0 17.4 23.3 34.3 89.7 81.6 280.3
16 17:30 18.8 48 7.73 7.6 20 32 1016.3 0 17.5 23.3 34.3 89.8 82.0 281.5
16 17:20 19 47 7.66 7.4 24 32 1016.3 0 17.4 23.1 34.0 88.9 80.9 277.9
16 17:10 18.5 46 7.28 6.7 22 28 1016.4 0 16.6 22.7 32.8 85.8 76.9 263.7
16 17:00 18.6 45 7.16 6.4 19 28 1016.5 0 16.3 22.5 32.3 84.5 75.4 258.5
16 16:50 18.5 46 7.28 6.7 19 24 1016.6 0 16.6 22.7 32.8 85.8 76.9 263.8
16 16:40 18.7 45 7.2 6.5 20 26 1016.5 0 16.4 22.6 32.4 84.8 75.8 259.8
16 16:30 18.8 45 7.25 6.6 19 33 1016.6 0 16.5 22.6 32.6 85.2 76.3 261.6
16 16:20 18.9 44 7.13 6.4 17 20 1016.6 0 16.2 22.4 32.1 84.0 74.8 256.3
16 16:10 18.8 44 7.09 6.3 22 28 1016.6 0 16.2 22.4 32.0 83.7 74.4 255.0
16 16:00 18.7 42 6.72 5.5 20 30 1016.7 0 15.4 21.9 30.8 80.3 70.2 240.2
16 15:50 19 42 6.84 5.8 26 30 1016.9 0 15.6 22.0 31.1 81.2 71.3 244.2
16 15:40 19.1 42 6.88 5.9 24 28 1016.9 0 15.7 22.0 31.2 81.4 71.7 245.6
16 15:30 19 44 7.17 6.5 20 30 1017 0 16.3 22.5 32.2 84.3 75.2 257.7
16 15:20 18.5 46 7.28 6.7 22 28 1017.2 0 16.6 22.7 32.8 85.9 77.0 263.9
16 15:10 18.8 46 7.41 6.9 19 24 1017.3 0 16.8 22.9 33.2 86.8 78.2 268.4
16 15:00 19 44 7.17 6.5 20 35 1017 0 16.3 22.5 32.2 84.3 75.2 257.7
16 14:50 19.6 41 6.92 6 19 24 1017.4 0 15.8 22.0 31.1 81.3 71.8 245.8
16 14:40 19.3 41 6.8 5.7 9 11 1017.5 0 15.5 21.9 30.8 80.5 70.6 241.8
16 14:30 19.1 39 6.39 4.8 17 24 1017.4 0 14.7 21.3 29.5 76.9 66.1 225.9
16 14:20 19.1 42 6.88 5.9 15 19 1017.5 0 15.7 22.0 31.2 81.5 71.7 245.7
16 14:10 19.8 40 6.83 5.8 17 20 1017.5 0 15.6 21.8 30.8 80.3 70.6 241.6
16 14:00 19.1 43 7.05 6.2 17 24 1017.4 0 16.1 22.3 31.8 83.1 73.7 252.6
16 13:50 18.1 44 6.8 5.7 20 24 1017.5 0 15.6 22.2 31.3 81.7 71.7 245.4
16 13:40 17.9 43 6.56 5.2 19 24 1017.6 0 15.1 21.9 30.5 79.7 69.1 236.2
16 13:30 17.9 46 7.02 6.1 19 33 1017.6 0 16.1 22.5 32.2 84.0 74.5 255.1
16 13:20 18.1 44 6.8 5.7 17 22 1017.6 0 15.6 22.2 31.3 81.7 71.7 245.5
16 13:10 18.3 44 6.88 5.8 17 24 1017.7 0 15.7 22.2 31.5 82.3 72.5 248.2
16 13:00 17.9 41 6.26 4.5 17 28 1017.6 0 14.5 21.4 29.5 76.9 65.6 224.1
16 12:50 17.6 43 6.45 4.9 24 26 1017.8 0 14.9 21.8 30.3 78.9 68.1 232.7
16 12:40 18.1 41 6.33 4.7 15 17 1017.9 0 14.6 21.5 29.7 77.4 66.3 226.4
16 12:30 17.6 44 6.6 5.2 17 28 1017.7 0 15.2 22.0 30.8 80.4 69.8 238.8
16 12:20 17.9 41 6.26 4.5 15 20 1018 0 14.5 21.5 29.5 76.9 65.7 224.2
16 12:10 16.7 43 6.11 4.1 20 28 1018 0 14.2 21.5 29.4 76.6 64.9 221.4
16 12:00 16.6 43 6.07 4 15 24 1018.1 0 14.1 21.5 29.3 76.4 64.5 220.0
16 11:50 16.3 42 5.83 3.4 19 22 1018.2 0 13.6 21.2 28.6 74.4 62.0 211.1
16 11:40 15.9 43 5.82 3.4 20 30 1018.1 0 13.6 21.3 28.7 74.7 62.2 211.7
16 11:30 16 43 5.86 3.4 19 28 1018.3 0 13.7 21.3 28.8 75.0 62.6 213.1
16 11:20 15 48 6.15 4.1 9 9 1018.3 0 14.3 22.0 30.2 78.7 66.8 227.8
16 11:10 15.2 48 6.23 4.3 15 19 1018.2 0 14.5 22.1 30.4 79.2 67.6 230.5
16 11:00 14.6 51 6.38 4.6 15 28 1018.3 0 14.8 22.4 31.2 81.3 69.9 238.6
16 10:50 15.3 49 6.4 4.7 13 17 1018.3 0 14.8 22.3 31.0 80.8 69.5 237.3
16 10:40 15 52 6.67 5.2 20 28 1018.1 0 15.4 22.8 32.0 83.7 73.0 249.6
16 10:30 13.2 57 6.55 4.9 15 24 1018.2 0 15.2 23.0 32.3 84.4 73.2 250.1
16 10:20 14.6 53 6.63 5.1 15 22 1018.2 0 15.4 22.8 32.1 83.7 72.9 249.2
16 10:10 13.2 56 6.43 4.6 13 15 1018.1 0 15.0 22.8 31.9 83.2 71.7 244.9
16 10:00 12.8 57 6.39 4.5 17 24 1018.2 0 14.9 22.9 31.9 83.2 71.6 244.4
16 09:50 13.2 56 6.43 4.6 19 22 1018.3 0 15.0 22.8 31.9 83.2 71.7 244.9
16 09:40 12.3 60 6.52 4.8 17 19 1018.4 0 15.2 23.2 32.6 85.1 73.7 251.6
16 09:30 12.3 59 6.41 4.5 17 24 1018.4 0 15.0 23.0 32.2 84.0 72.3 246.8
16 09:20 11.9 60 6.36 4.4 19 22 1018.3 0 14.9 23.1 32.1 83.9 72.1 245.8
16 09:10 12.3 58 6.3 4.3 19 24 1018.2 0 14.7 22.9 31.7 82.8 70.9 242.0
16 09:00 11.9 59 6.25 4.2 17 26 1018.1 0 14.7 22.9 31.7 82.7 70.7 241.0
16 08:50 12.4 60 6.56 4.9 15 20 1018.2 0.2 15.3 23.2 32.7 85.3 74.1 253.0
16 08:40 11.2 63 6.39 4.4 17 20 1018.2 0.2 15.0 23.3 32.5 84.9 73.1 249.3
16 08:30 11.1 63 6.35 4.3 17 26 1018 0.2 14.9 23.2 32.4 84.6 72.6 247.8
16 08:20 10.9 64 6.37 4.4 13 15 1018 0.2 15.0 23.3 32.6 85.0 73.1 249.3
16 08:10 11.2 63 6.39 4.4 17 19 1017.9 0.2 15.0 23.3 32.5 84.9 73.0 249.3
16 08:00 10.9 64 6.37 4.4 13 17 1017.7 0.2 15.0 23.3 32.5 85.0 73.1 249.3
16 07:50 10.5 65 6.31 4.2 11 15 1017.7 0.2 14.8 23.3 32.5 84.8 72.7 247.8
16 07:40 10.5 67 6.5 4.6 13 15 1017.8 0.2 15.2 23.6 33.2 86.8 75.1 256.4
16 07:30 10.4 70 6.75 5.2 9 13 1017.6 0.2 15.8 24.0 34.2 89.4 78.4 267.9
16 07:20 10.3 71 6.8 5.3 11 13 1017.6 0.2 15.9 24.1 34.5 90.1 79.1 270.5
16 07:10 10.2 71 6.76 5.2 11 13 1017.5 0.2 15.8 24.1 34.3 89.8 78.7 269.0
16 07:00 10.1 72 6.81 5.3 9 15 1017.3 0.2 15.9 24.2 34.6 90.4 79.5 271.6
16 06:50 10 72 6.77 5.2 13 15 1017.3 0.2 15.8 24.2 34.5 90.1 79.0 270.1
16 06:40 10 71 6.67 5 11 15 1017.2 0.2 15.6 24.0 34.1 89.0 77.7 265.5
16 06:30 10 70 6.58 4.8 11 17 1017.1 0.2 15.4 23.9 33.7 88.1 76.6 261.4
16 06:20 10 69 6.49 4.6 13 15 1017 0.2 15.2 23.7 33.3 87.1 75.4 257.3
16 06:10 10.1 66 6.24 4 17 19 1017 0.2 14.7 23.3 32.3 84.4 72.1 245.8
16 06:00 10.1 65 6.15 3.8 11 17 1016.8 0.2 14.5 23.2 32.0 83.5 71.0 241.8
16 05:50 10.2 64 6.09 3.7 11 13 1016.8 0.2 14.4 23.0 31.7 82.8 70.1 238.8
16 05:40 10.2 64 6.09 3.7 15 15 1016.6 0.2 14.4 23.0 31.7 82.7 70.1 238.8
16 05:30 10.2 63 6 3.5 17 24 1016.6 0.2 14.2 22.9 31.4 81.8 69.0 234.8
16 05:20 10.1 63 5.96 3.4 20 22 1016.5 0.2 14.1 22.8 31.2 81.5 68.5 233.3
16 05:10 10.2 64 6.09 3.7 19 20 1016.5 0.2 14.4 23.0 31.7 82.7 70.1 238.7
16 04:50 10.1 64 6.05 3.6 19 24 1016.2 0.2 14.3 23.0 31.6 82.4 69.6 237.2
16 04:40 10.1 64 6.05 3.6 15 17 1016.1 0.2 14.3 23.0 31.6 82.4 69.6 237.2
16 04:30 10.1 66 6.24 4 19 28 1016 0.2 14.7 23.3 32.3 84.3 72.0 245.6
16 04:20 10.1 65 6.15 3.8 17 20 1015.9 0.2 14.5 23.1 31.9 83.4 70.9 241.6
16 04:10 10.1 67 6.34 4.3 20 24 1015.9 0.2 14.9 23.4 32.7 85.4 73.3 250.0
16 04:00 10.1 70 6.62 4.9 19 28 1015.8 0.2 15.5 23.9 33.8 88.3 76.9 262.6
16 03:50 10.1 70 6.62 4.9 17 22 1015.8 0.2 15.5 23.9 33.8 88.3 76.9 262.6
16 03:40 10.1 71 6.72 5.1 19 20 1015.9 0.2 15.7 24.0 34.2 89.3 78.2 267.2
16 03:30 10.1 70 6.62 4.9 19 28 1015.8 0.2 15.5 23.9 33.8 88.3 76.9 262.6
16 03:20 10.2 67 6.38 4.4 13 15 1015.8 0.2 15.0 23.4 32.8 85.6 73.7 251.5
16 03:10 10.2 66 6.28 4.1 15 20 1015.9 0.2 14.8 23.3 32.4 84.6 72.5 247.1
16 03:00 10.2 65 6.19 3.9 17 28 1015.8 0.2 14.6 23.2 32.1 83.7 71.3 243.0
16 02:50 10.2 64 6.09 3.7 19 20 1016 0.2 14.4 23.0 31.7 82.7 70.1 238.6
16 02:40 10.3 63 6.03 3.6 22 24 1016.1 0.2 14.2 22.9 31.4 82.0 69.2 235.7

Last Refresh: 16-Jan-2021 19:30:57

Most of the information presented on this site is sourced from the Bureau of Meteorology.  Copyright in all material sourced from the Bureau of Meteorology resides with the Commonwealth of Australia.